Time;durP1;ratioP1;P1;durP2;ratioP2;P2;SDS_P1;SDS_P2;PMS_P1;PMS_P2;Temp;Humidity;BMP_temperature;BMP_pressure;BME280_temperature;BME280_humidity;BME280_pressure;Samples;Min_cycle;Max_cycle;Signal;HPM_P1;HPM_P2
2023/04/09 00:02:48;;;;;;;16.00;14.40;;;6.40;99.90;;;;;;6275656;28;20466;-62
2023/04/09 00:05:51;;;;;;;16.00;14.37;;;6.40;99.90;;;;;;6275101;28;20466;-62
2023/04/09 00:08:54;;;;;;;17.50;15.67;;;6.50;99.90;;;;;;6275951;28;20477;-63
2023/04/09 00:11:59;;;;;;;15.43;13.83;;;6.50;99.90;;;;;;6275689;28;20474;-63
2023/04/09 00:15:02;;;;;;;15.50;13.83;;;6.50;99.90;;;;;;6275657;28;20466;-62
2023/04/09 00:18:05;;;;;;;15.43;13.83;;;6.40;99.90;;;;;;6275697;28;20492;-62
2023/04/09 00:21:08;;;;;;;14.70;13.30;;;6.50;99.90;;;;;;6275235;28;20470;-64
2023/04/09 00:24:11;;;;;;;15.90;14.30;;;6.50;99.90;;;;;;6274808;28;20937;-62
2023/04/09 00:27:16;;;;;;;16.30;14.70;;;6.50;99.90;;;;;;6275036;28;20854;-62
2023/04/09 00:30:19;;;;;;;15.23;13.47;;;6.50;99.90;;;;;;6274270;28;20856;-62
2023/04/09 00:33:22;;;;;;;16.23;14.60;;;6.50;99.90;;;;;;6274874;28;20466;-63
2023/04/09 00:36:25;;;;;;;14.53;13.03;;;6.50;99.90;;;;;;6274487;28;20486;-62
2023/04/09 00:39:29;;;;;;;15.27;13.77;;;6.50;99.90;;;;;;6275046;28;20478;-62
2023/04/09 00:42:34;;;;;;;16.63;15.00;;;6.50;99.90;;;;;;6275755;28;20474;-62
2023/04/09 00:45:38;;;;;;;16.17;14.70;;;6.50;99.90;;;;;;6274927;28;20866;-62
2023/04/09 00:48:41;;;;;;;16.30;14.50;;;6.50;99.90;;;;;;6274367;28;20553;-63
2023/04/09 00:51:46;;;;;;;14.57;13.17;;;6.50;99.90;;;;;;6274017;28;20482;-62
2023/04/09 00:54:50;;;;;;;18.57;15.90;;;6.50;99.90;;;;;;6274140;28;20485;-62
2023/04/09 00:57:54;;;;;;;14.80;13.30;;;6.50;99.90;;;;;;6274943;28;20489;-62
2023/04/09 01:00:57;;;;;;;14.10;12.60;;;6.50;99.90;;;;;;6274638;28;20493;-62
2023/04/09 01:04:00;;;;;;;14.50;13.20;;;6.50;99.90;;;;;;6275096;28;20576;-62
2023/04/09 01:07:11;;;;;;;14.60;13.10;;;6.50;99.90;;;;;;6275902;28;20547;-62
2023/04/09 01:10:20;;;;;;;14.70;13.20;;;6.40;99.90;;;;;;6274166;28;20509;-62
2023/04/09 01:13:31;;;;;;;14.87;12.90;;;6.40;99.90;;;;;;6274886;28;20434;-63
2023/04/09 01:16:36;;;;;;;14.63;13.23;;;6.40;99.90;;;;;;6274576;28;20486;-62
2023/04/09 01:19:47;;;;;;;15.77;14.07;;;6.40;99.90;;;;;;6274751;28;20462;-62
2023/04/09 01:23:11;;;;;;;16.20;12.67;;;6.40;99.90;;;;;;6274943;28;20466;-62
2023/04/09 01:26:21;;;;;;;15.83;14.30;;;6.40;99.90;;;;;;6274924;28;20474;-62
2023/04/09 01:29:29;;;;;;;15.90;14.27;;;6.40;99.90;;;;;;6273999;28;20467;-62
2023/04/09 01:32:34;;;;;;;16.13;14.43;;;6.40;99.90;;;;;;6274621;28;20470;-62
2023/04/09 01:35:38;;;;;;;17.20;14.17;;;6.40;99.90;;;;;;6273737;28;20471;-62
2023/04/09 01:38:42;;;;;;;16.90;15.30;;;6.40;99.90;;;;;;6274034;28;20477;-62
2023/04/09 01:41:47;;;;;;;17.10;14.83;;;6.40;99.90;;;;;;6277257;28;20488;-62
2023/04/09 01:44:53;;;;;;;16.90;15.20;;;6.30;99.90;;;;;;6278795;28;20481;-62
2023/04/09 01:47:57;;;;;;;15.90;14.27;;;6.40;99.90;;;;;;6279135;28;20787;-62
2023/04/09 01:51:01;;;;;;;15.30;13.80;;;6.40;99.90;;;;;;6269865;28;20968;-62
2023/04/09 01:54:04;;;;;;;16.30;14.20;;;6.40;99.90;;;;;;6278855;28;20502;-62
2023/04/09 01:57:08;;;;;;;15.10;13.50;;;6.40;99.90;;;;;;6278579;28;20985;-62
2023/04/09 02:00:14;;;;;;;17.23;14.63;;;6.40;99.90;;;;;;6278718;28;20462;-62
2023/04/09 02:03:23;;;;;;;14.90;13.53;;;6.50;99.90;;;;;;6278468;28;20478;-62
2023/04/09 02:06:38;;;;;;;16.17;14.60;;;6.40;99.90;;;;;;6278080;28;20497;-63
2023/04/09 02:09:43;;;;;;;16.67;14.80;;;6.50;99.90;;;;;;6278392;28;20861;-63
2023/04/09 02:12:52;;;;;;;16.47;14.10;;;6.60;99.90;;;;;;6278144;28;20829;-63
2023/04/09 02:15:58;;;;;;;16.07;14.47;;;6.60;99.90;;;;;;6278315;28;20485;-63
2023/04/09 02:19:01;;;;;;;17.20;15.40;;;6.70;99.90;;;;;;6277975;28;20556;-63
2023/04/09 02:22:05;;;;;;;15.93;14.43;;;6.60;99.90;;;;;;6277872;28;20492;-63
2023/04/09 02:25:08;;;;;;;15.67;13.50;;;6.70;99.90;;;;;;6277764;28;20971;-63
2023/04/09 02:28:11;;;;;;;14.60;13.10;;;6.60;99.90;;;;;;6278161;28;20465;-63
2023/04/09 02:31:16;;;;;;;17.13;15.33;;;6.50;99.90;;;;;;6277704;28;20453;-63
2023/04/09 02:34:19;;;;;;;16.93;15.13;;;6.40;99.90;;;;;;6278073;28;20466;-63
2023/04/09 02:37:22;;;;;;;17.00;15.40;;;6.30;99.90;;;;;;6277484;28;20462;-63
2023/04/09 02:40:25;;;;;;;17.30;15.50;;;6.30;99.90;;;;;;6277916;28;20454;-63
2023/04/09 02:43:28;;;;;;;16.97;14.70;;;6.40;99.90;;;;;;6277719;28;20808;-63
2023/04/09 02:46:33;;;;;;;16.57;14.87;;;6.40;99.90;;;;;;6277639;28;20469;-63
2023/04/09 02:49:36;;;;;;;17.03;15.30;;;6.40;99.90;;;;;;6277207;28;20466;-63
2023/04/09 02:52:39;;;;;;;16.10;14.60;;;6.40;99.90;;;;;;6271921;28;20469;-63
2023/04/09 02:55:42;;;;;;;16.23;14.53;;;6.50;99.90;;;;;;6277740;28;20465;-63
2023/04/09 02:58:48;;;;;;;16.50;14.10;;;6.40;99.90;;;;;;6277045;28;20473;-63
2023/04/09 03:01:52;;;;;;;16.13;14.53;;;6.50;99.90;;;;;;6277514;28;20513;-63
2023/04/09 03:04:56;;;;;;;17.20;15.50;;;6.40;99.90;;;;;;6276560;28;20466;-63
2023/04/09 03:07:59;;;;;;;16.27;14.57;;;6.40;99.90;;;;;;6276760;28;20474;-63
2023/04/09 03:11:02;;;;;;;18.13;16.43;;;6.40;99.90;;;;;;6276845;28;20470;-63
2023/04/09 03:14:05;;;;;;;16.87;15.27;;;6.30;99.90;;;;;;6277038;28;20484;-63
2023/04/09 03:17:09;;;;;;;17.00;15.30;;;6.30;99.90;;;;;;6276837;28;20470;-62
2023/04/09 03:20:12;;;;;;;16.43;14.83;;;6.30;99.90;;;;;;6277243;28;20474;-63
2023/04/09 03:23:16;;;;;;;18.37;16.47;;;6.30;99.90;;;;;;6276598;28;20611;-62
2023/04/09 03:26:19;;;;;;;17.10;15.30;;;6.30;99.90;;;;;;6276744;28;20493;-62
2023/04/09 03:29:22;;;;;;;18.23;16.43;;;6.30;99.90;;;;;;6276621;28;20462;-62
2023/04/09 03:32:26;;;;;;;17.80;16.00;;;6.40;99.90;;;;;;6276524;28;20964;-62
2023/04/09 03:35:30;;;;;;;17.13;15.33;;;6.30;99.90;;;;;;6276696;28;20474;-62
2023/04/09 03:38:33;;;;;;;17.33;15.53;;;6.30;99.90;;;;;;6276503;28;20466;-62
2023/04/09 03:41:36;;;;;;;17.60;15.83;;;6.30;99.90;;;;;;6276389;28;20470;-63
2023/04/09 03:44:39;;;;;;;17.90;16.10;;;6.30;99.90;;;;;;6275889;28;20488;-63
2023/04/09 03:47:43;;;;;;;16.90;15.20;;;6.30;99.90;;;;;;6276113;28;20462;-63
2023/04/09 03:50:47;;;;;;;17.50;15.73;;;6.40;99.90;;;;;;6276138;28;20485;-63
2023/04/09 03:53:50;;;;;;;16.80;15.13;;;6.40;99.90;;;;;;6276248;28;20948;-63
2023/04/09 03:56:53;;;;;;;16.63;14.97;;;6.30;99.90;;;;;;6275947;28;20466;-63
2023/04/09 03:59:56;;;;;;;16.93;14.77;;;6.20;99.90;;;;;;6276146;28;20466;-63
2023/04/09 04:03:00;;;;;;;15.80;14.17;;;6.20;99.90;;;;;;6275698;28;20474;-63
2023/04/09 04:06:04;;;;;;;16.67;14.90;;;6.20;99.90;;;;;;6275158;28;20807;-63
2023/04/09 04:09:07;;;;;;;18.57;16.40;;;6.20;99.90;;;;;;6275398;28;20466;-63
2023/04/09 04:12:11;;;;;;;16.70;15.00;;;6.20;99.90;;;;;;6275549;28;20480;-63
2023/04/09 04:15:14;;;;;;;18.40;16.43;;;6.20;99.90;;;;;;6275686;28;20470;-63
2023/04/09 04:18:19;;;;;;;16.73;15.00;;;6.20;99.90;;;;;;6275460;28;20841;-64
2023/04/09 04:21:22;;;;;;;19.27;16.97;;;6.20;99.90;;;;;;6275528;28;20466;-63
2023/04/09 04:24:25;;;;;;;20.13;18.03;;;6.20;99.90;;;;;;6275057;28;20477;-63
2023/04/09 04:27:28;;;;;;;21.77;18.27;;;6.20;99.90;;;;;;6274770;28;20859;-63
2023/04/09 04:30:31;;;;;;;18.40;16.50;;;6.10;99.90;;;;;;6274953;28;20794;-63
2023/04/09 04:33:36;;;;;;;21.80;19.33;;;6.20;99.90;;;;;;6275341;28;20480;-63
2023/04/09 04:36:39;;;;;;;20.83;17.30;;;6.10;99.90;;;;;;6274653;28;20552;-63
2023/04/09 04:39:42;;;;;;;19.20;16.33;;;6.20;99.90;;;;;;6275041;28;20480;-63
2023/04/09 04:42:45;;;;;;;18.37;16.40;;;6.10;99.90;;;;;;6274725;28;20474;-63
2023/04/09 04:45:51;;;;;;;17.63;15.50;;;6.00;99.90;;;;;;6274715;28;20485;-63
2023/04/09 04:48:57;;;;;;;18.00;16.10;;;6.00;99.90;;;;;;6274551;28;20477;-63
2023/04/09 04:52:00;;;;;;;18.53;16.70;;;6.00;99.90;;;;;;6274606;28;20484;-63
2023/04/09 04:55:03;;;;;;;19.20;17.20;;;6.10;99.90;;;;;;6274636;28;20482;-63
2023/04/09 04:58:06;;;;;;;19.27;17.23;;;6.10;99.90;;;;;;6274566;28;20478;-63
2023/04/09 05:01:09;;;;;;;18.60;16.60;;;6.20;99.90;;;;;;6275001;28;20454;-63
2023/04/09 05:04:14;;;;;;;17.20;15.50;;;6.20;99.90;;;;;;6273678;28;20466;-63
2023/04/09 05:07:17;;;;;;;18.47;16.63;;;6.10;99.90;;;;;;6274052;28;20478;-63
2023/04/09 05:10:20;;;;;;;18.83;16.97;;;6.20;99.90;;;;;;6274720;28;20453;-63
2023/04/09 05:13:23;;;;;;;19.30;15.93;;;6.30;99.90;;;;;;6275262;28;20430;-63
2023/04/09 05:16:29;;;;;;;17.30;15.53;;;6.30;99.90;;;;;;6273808;28;20915;-62
2023/04/09 05:19:34;;;;;;;18.03;15.93;;;6.40;99.90;;;;;;6274633;28;20527;-63
2023/04/09 05:22:37;;;;;;;16.47;14.87;;;6.50;99.90;;;;;;6274208;28;20863;-62
2023/04/09 05:25:40;;;;;;;16.33;14.70;;;6.60;99.90;;;;;;6274372;28;20477;-62
2023/04/09 05:28:43;;;;;;;16.97;15.20;;;6.60;99.90;;;;;;6274506;28;20953;-62
2023/04/09 05:31:46;;;;;;;17.93;16.13;;;6.50;99.90;;;;;;6274492;28;20480;-62
2023/04/09 05:34:51;;;;;;;17.50;15.67;;;6.60;99.90;;;;;;6276824;28;20776;-63
2023/04/09 05:37:54;;;;;;;16.00;14.00;;;6.60;99.90;;;;;;6277651;28;20469;-63
2023/04/09 05:40:57;;;;;;;17.30;15.07;;;6.70;99.90;;;;;;6275696;28;20484;-63
2023/04/09 05:44:00;;;;;;;16.70;15.10;;;6.80;99.90;;;;;;6274116;28;20478;-63
2023/04/09 05:47:03;;;;;;;16.47;14.67;;;6.70;99.90;;;;;;6274529;28;20474;-62
2023/04/09 05:50:09;;;;;;;16.87;13.50;;;6.80;99.90;;;;;;6274023;28;20469;-63
2023/04/09 05:53:13;;;;;;;16.27;14.77;;;6.90;99.90;;;;;;6274224;28;20727;-63
2023/04/09 05:56:16;;;;;;;16.33;14.70;;;6.90;99.90;;;;;;6273760;28;20466;-64
2023/04/09 05:59:19;;;;;;;14.50;13.00;;;7.00;99.90;;;;;;6274051;28;20478;-63
2023/04/09 06:02:23;;;;;;;14.00;12.60;;;7.00;99.90;;;;;;6274055;28;20768;-63
2023/04/09 06:05:28;;;;;;;14.43;12.87;;;7.00;99.90;;;;;;6264462;28;20480;-63
2023/04/09 06:08:31;;;;;;;14.87;13.20;;;7.00;99.90;;;;;;6273706;28;20983;-63
2023/04/09 06:11:34;;;;;;;15.37;13.70;;;7.00;99.90;;;;;;6273747;28;20470;-63
2023/04/09 06:14:37;;;;;;;14.97;13.47;;;7.00;99.90;;;;;;6273358;28;20860;-63
2023/04/09 06:17:41;;;;;;;13.87;12.20;;;7.10;99.90;;;;;;6273672;28;20469;-63
2023/04/09 06:20:45;;;;;;;13.57;12.20;;;7.10;99.90;;;;;;6273469;28;20803;-62
2023/04/09 06:23:48;;;;;;;16.53;14.77;;;7.20;99.90;;;;;;6273498;28;20473;-62
2023/04/09 06:26:52;;;;;;;15.00;13.40;;;7.20;99.90;;;;;;6273626;28;20472;-63
2023/04/09 06:29:55;;;;;;;11.80;10.60;;;7.10;99.90;;;;;;6277906;28;20504;-63
2023/04/09 06:32:58;;;;;;;12.20;10.63;;;7.00;99.90;;;;;;6278477;28;20476;-63
2023/04/09 06:36:03;;;;;;;13.00;10.50;;;6.90;99.90;;;;;;6277698;28;20494;-63
2023/04/09 06:39:06;;;;;;;12.03;10.77;;;6.80;99.90;;;;;;6277714;28;20481;-61
2023/04/09 06:42:09;;;;;;;11.90;10.73;;;6.90;99.90;;;;;;6277559;28;20485;-61
2023/04/09 06:45:12;;;;;;;12.07;10.77;;;7.00;99.90;;;;;;6277503;28;20829;-61
2023/04/09 06:48:16;;;;;;;10.90;9.90;;;7.10;99.90;;;;;;6277314;28;20474;-62
2023/04/09 06:51:20;;;;;;;13.73;12.33;;;7.10;99.90;;;;;;6277133;28;20466;-62
2023/04/09 06:54:23;;;;;;;12.00;10.80;;;7.20;99.90;;;;;;6277323;28;20474;-62
2023/04/09 06:57:27;;;;;;;13.33;11.47;;;7.20;99.90;;;;;;6277441;28;20478;-63
2023/04/09 07:00:30;;;;;;;12.97;10.77;;;7.20;99.90;;;;;;6278044;28;20481;-62
2023/04/09 07:03:33;;;;;;;13.67;10.87;;;7.20;99.90;;;;;;6278037;28;20611;-63
2023/04/09 07:06:39;;;;;;;15.33;11.50;;;7.30;99.90;;;;;;6277336;28;20845;-63
2023/04/09 07:09:43;;;;;;;18.07;16.13;;;7.30;99.90;;;;;;6273052;28;20497;-63
2023/04/09 07:12:46;;;;;;;19.83;16.00;;;7.30;99.90;;;;;;6277635;28;20991;-63
2023/04/09 07:15:49;;;;;;;13.10;11.80;;;7.30;99.90;;;;;;6276936;28;20485;-63
2023/04/09 07:18:52;;;;;;;11.27;10.17;;;7.30;99.90;;;;;;6276895;28;20465;-63
2023/04/09 07:21:56;;;;;;;12.00;10.73;;;7.40;99.90;;;;;;6298561;28;20484;-63
2023/04/09 07:25:00;;;;;;;11.43;10.20;;;7.40;99.90;;;;;;6301712;28;20508;-62
2023/04/09 07:28:03;;;;;;;14.60;13.03;;;7.50;99.90;;;;;;6301398;28;20496;-64
2023/04/09 07:31:06;;;;;;;11.77;10.57;;;7.60;99.90;;;;;;6301223;28;20484;-63
2023/04/09 07:34:10;;;;;;;13.00;11.70;;;7.70;99.90;;;;;;6301092;28;20813;-62
2023/04/09 07:37:14;;;;;;;12.20;11.00;;;7.70;99.90;;;;;;6283668;28;20466;-62
2023/04/09 07:40:18;;;;;;;12.37;11.10;;;7.80;99.90;;;;;;6275918;28;20780;-62
2023/04/09 07:43:21;;;;;;;12.13;10.90;;;7.80;99.90;;;;;;6276429;28;20458;-63
2023/04/09 07:46:24;;;;;;;12.10;10.90;;;7.90;99.90;;;;;;6276236;28;20462;-62
2023/04/09 07:49:28;;;;;;;13.60;12.10;;;8.00;99.90;;;;;;6275582;28;20509;-64
2023/04/09 07:52:32;;;;;;;13.53;11.77;;;8.00;99.90;;;;;;6276543;28;20481;-63
2023/04/09 07:55:35;;;;;;;12.50;11.30;;;8.00;99.90;;;;;;6276290;28;20559;-64
2023/04/09 07:58:39;;;;;;;12.57;11.27;;;8.10;99.90;;;;;;6275884;28;20961;-64
2023/04/09 08:01:42;;;;;;;11.77;10.60;;;8.20;99.90;;;;;;6275732;28;20485;-63
2023/04/09 08:04:45;;;;;;;12.50;11.30;;;8.30;99.90;;;;;;6275730;28;20540;-63
2023/04/09 08:07:51;;;;;;;12.33;11.13;;;8.40;99.90;;;;;;6275524;28;20482;-63
2023/04/09 08:10:54;;;;;;;11.20;10.10;;;8.40;99.90;;;;;;6276100;28;20482;-63
2023/04/09 08:13:57;;;;;;;11.23;10.10;;;8.50;99.90;;;;;;6275518;28;20549;-63
2023/04/09 08:17:01;;;;;;;10.50;9.40;;;8.60;99.90;;;;;;6275608;28;20466;-64
2023/04/09 08:20:04;;;;;;;10.73;9.73;;;8.80;99.90;;;;;;6275572;28;20480;-64
2023/04/09 08:23:09;;;;;;;10.63;9.63;;;8.80;99.90;;;;;;6275427;28;20470;-64
2023/04/09 08:26:12;;;;;;;10.50;9.50;;;8.90;99.90;;;;;;6274990;28;20470;-65
2023/04/09 08:29:15;;;;;;;11.13;10.13;;;9.00;99.90;;;;;;6275257;28;20470;-63
2023/04/09 08:32:18;;;;;;;14.10;12.60;;;9.20;99.90;;;;;;6275340;28;20980;-64
2023/04/09 08:35:21;;;;;;;12.50;11.17;;;9.30;99.90;;;;;;6274930;28;20489;-65
2023/04/09 08:38:26;;;;;;;14.17;12.67;;;9.30;99.90;;;;;;6275305;28;20484;-63
2023/04/09 08:41:29;;;;;;;12.20;11.00;;;9.30;99.90;;;;;;6268207;28;20482;-63
2023/04/09 08:44:32;;;;;;;10.33;9.43;;;9.20;99.90;;;;;;6274807;28;20485;-63
2023/04/09 08:47:36;;;;;;;10.70;9.60;;;9.20;99.90;;;;;;6274637;28;21216;-63
2023/04/09 08:50:40;;;;;;;11.10;9.30;;;9.20;99.90;;;;;;6274299;28;20474;-63
2023/04/09 08:53:47;;;;;;;10.70;9.60;;;9.20;99.90;;;;;;6274601;28;20488;-62
2023/04/09 08:56:50;;;;;;;9.60;8.70;;;9.20;99.90;;;;;;6275216;28;20520;-64
2023/04/09 08:59:53;;;;;;;9.97;8.23;;;9.00;99.90;;;;;;6274499;28;20470;-64
2023/04/09 09:03:03;;;;;;;9.50;8.60;;;9.10;99.90;;;;;;6275065;28;20488;-63
2023/04/09 09:06:21;;;;;;;9.70;8.80;;;9.20;99.90;;;;;;6274670;28;20470;-63
2023/04/09 09:09:26;;;;;;;9.87;8.80;;;9.30;99.90;;;;;;6275021;28;20493;-61
2023/04/09 09:12:34;;;;;;;9.10;8.20;;;9.40;99.90;;;;;;6274699;28;20474;-61
2023/04/09 09:15:37;;;;;;;9.03;8.13;;;9.40;99.90;;;;;;6274558;28;20993;-61
2023/04/09 09:18:42;;;;;;;11.13;9.93;;;9.50;99.90;;;;;;6274664;28;20478;-61
2023/04/09 09:21:55;;;;;;;10.87;9.80;;;9.50;99.90;;;;;;6274612;28;20565;-61
2023/04/09 09:25:00;;;;;;;11.20;9.57;;;9.50;99.90;;;;;;6274295;28;20482;-62
2023/04/09 09:28:08;;;;;;;12.40;11.13;;;9.30;99.90;;;;;;6274953;28;20481;-62
2023/04/09 09:31:12;;;;;;;12.33;10.33;;;9.10;99.90;;;;;;6274044;28;20478;-62
2023/04/09 09:34:16;;;;;;;11.70;9.57;;;9.10;99.90;;;;;;6274346;28;20458;-62
2023/04/09 09:37:27;;;;;;;11.40;10.30;;;9.10;99.90;;;;;;6274049;28;20442;-62
2023/04/09 09:40:31;;;;;;;10.43;9.40;;;8.80;99.90;;;;;;6274379;28;20434;-62
2023/04/09 09:43:41;;;;;;;11.60;9.90;;;8.80;99.90;;;;;;6273874;28;20529;-62
2023/04/09 09:46:44;;;;;;;10.37;9.47;;;8.80;99.90;;;;;;6274101;28;21174;-62
2023/04/09 09:49:49;;;;;;;10.13;8.77;;;9.20;99.90;;;;;;6273981;28;20466;-62
2023/04/09 09:52:58;;;;;;;9.03;8.23;;;10.00;99.90;;;;;;6273829;28;20956;-61
2023/04/09 09:56:05;;;;;;;7.20;6.57;;;10.70;99.90;;;;;;6274063;28;20493;-61
2023/04/09 09:59:16;;;;;;;7.43;6.83;;;11.90;99.30;;;;;;6274094;28;20895;-61
2023/04/09 10:02:22;;;;;;;6.23;5.70;;;12.80;97.50;;;;;;6277140;28;20977;-61
2023/04/09 10:05:27;;;;;;;6.77;6.17;;;13.40;95.30;;;;;;6278694;28;20474;-62
2023/04/09 10:08:33;;;;;;;7.07;6.37;;;13.70;93.20;;;;;;6278616;28;20486;-62
2023/04/09 10:11:41;;;;;;;5.30;4.90;;;14.10;93.60;;;;;;6278486;28;20949;-63
2023/04/09 10:14:45;;;;;;;4.90;4.50;;;14.60;91.20;;;;;;6278595;28;20490;-61
2023/04/09 10:17:48;;;;;;;4.50;4.20;;;14.50;89.20;;;;;;6278571;28;20474;-62
2023/04/09 10:20:58;;;;;;;5.27;4.87;;;14.00;87.50;;;;;;6274348;28;20941;-62
2023/04/09 10:24:04;;;;;;;5.10;4.70;;;13.20;88.50;;;;;;6278684;28;20489;-62
2023/04/09 10:27:12;;;;;;;7.20;6.60;;;12.90;88.60;;;;;;6278047;28;20473;-62
2023/04/09 10:30:34;;;;;;;6.40;5.63;;;12.60;90.20;;;;;;6277899;28;20485;-62
2023/04/09 10:33:38;;;;;;;5.50;5.10;;;12.10;91.60;;;;;;6277790;28;20544;-61
2023/04/09 10:36:43;;;;;;;6.03;5.53;;;11.70;92.40;;;;;;6278251;28;20469;-62
2023/04/09 10:39:48;;;;;;;6.40;5.80;;;11.50;93.40;;;;;;6278156;28;20470;-62
2023/04/09 10:42:54;;;;;;;5.93;5.37;;;11.60;94.10;;;;;;6277388;28;20470;-62
2023/04/09 10:45:58;;;;;;;5.53;5.00;;;12.00;93.50;;;;;;6277338;28;20492;-62
2023/04/09 10:49:16;;;;;;;4.50;4.10;;;12.50;93.80;;;;;;6277253;28;20470;-62
2023/04/09 10:52:30;;;;;;;5.50;5.10;;;13.40;91.60;;;;;;6277797;28;20510;-62
2023/04/09 10:55:36;;;;;;;6.00;5.40;;;13.50;90.10;;;;;;6277532;28;20473;-62
2023/04/09 10:58:40;;;;;;;5.83;5.43;;;13.50;89.90;;;;;;6277160;28;20474;-62
2023/04/09 11:01:53;;;;;;;6.60;6.00;;;13.30;90.00;;;;;;6277452;28;20796;-62
2023/04/09 11:05:06;;;;;;;5.60;5.10;;;12.90;90.10;;;;;;6277077;28;20474;-63
2023/04/09 11:08:11;;;;;;;6.63;6.13;;;12.50;90.20;;;;;;6277532;28;20485;-62
2023/04/09 11:11:15;;;;;;;6.03;5.53;;;12.20;91.80;;;;;;6277305;28;20500;-62
2023/04/09 11:14:22;;;;;;;5.93;5.43;;;12.00;92.20;;;;;;6275671;28;20474;-62
2023/04/09 11:17:26;;;;;;;5.20;4.77;;;11.80;92.80;;;;;;6276909;28;20482;-62
2023/04/09 11:20:30;;;;;;;5.80;5.33;;;11.70;92.70;;;;;;6276001;28;20477;-62
2023/04/09 11:23:34;;;;;;;5.60;5.10;;;11.70;92.60;;;;;;6276765;28;20482;-62
2023/04/09 11:26:37;;;;;;;6.20;5.70;;;11.90;92.30;;;;;;6276465;28;20482;-62
2023/04/09 11:29:41;;;;;;;5.43;4.93;;;11.80;92.00;;;;;;6276019;28;20995;-62
2023/04/09 11:32:45;;;;;;;5.23;4.83;;;11.30;91.80;;;;;;6276303;28;20486;-62
2023/04/09 11:35:49;;;;;;;6.00;5.50;;;11.60;92.30;;;;;;6276217;28;20482;-61
2023/04/09 11:38:54;;;;;;;5.53;5.07;;;11.80;92.10;;;;;;6276454;28;20779;-63
2023/04/09 11:41:58;;;;;;;5.93;5.43;;;11.90;91.20;;;;;;6276721;28;20474;-63
2023/04/09 11:45:03;;;;;;;5.90;5.37;;;12.00;91.30;;;;;;6276453;28;20469;-62
2023/04/09 11:48:07;;;;;;;6.03;5.53;;;12.00;90.90;;;;;;6276926;28;20481;-62
2023/04/09 11:51:10;;;;;;;5.70;5.20;;;12.30;91.10;;;;;;6276029;28;20478;-62
2023/04/09 11:54:13;;;;;;;6.03;5.53;;;12.70;91.00;;;;;;6281331;28;22048;-62
2023/04/09 11:57:17;;;;;;;5.50;5.00;;;13.00;90.70;;;;;;6251484;28;20478;-62
2023/04/09 12:00:23;;;;;;;6.53;6.03;;;13.10;90.40;;;;;;6257510;28;20523;-62
2023/04/09 12:03:31;;;;;;;6.43;5.93;;;13.50;90.40;;;;;;6286829;28;20472;-62
2023/04/09 12:06:41;;;;;;;5.93;5.43;;;13.60;87.10;;;;;;6282506;28;20471;-61
2023/04/09 12:09:48;;;;;;;5.97;5.43;;;13.50;86.40;;;;;;6287937;28;20901;-62
2023/04/09 12:12:51;;;;;;;7.90;7.20;;;13.20;84.00;;;;;;6268905;28;20822;-62
2023/04/09 12:15:56;;;;;;;5.40;5.00;;;13.10;85.10;;;;;;6264928;28;20812;-62
2023/04/09 12:19:01;;;;;;;4.40;4.10;;;13.10;85.90;;;;;;6262038;28;20466;-62
2023/04/09 12:22:04;;;;;;;4.70;4.30;;;13.20;85.20;;;;;;6263087;28;20474;-63
2023/04/09 12:25:08;;;;;;;5.80;5.20;;;13.10;85.60;;;;;;6259929;28;21037;-63
2023/04/09 12:28:14;;;;;;;7.00;6.00;;;12.80;85.80;;;;;;6263736;28;20478;-63
2023/04/09 12:31:19;;;;;;;6.53;5.93;;;12.00;88.10;;;;;;6268421;28;20462;-62
2023/04/09 12:34:22;;;;;;;6.63;6.10;;;11.60;90.20;;;;;;6276796;28;20853;-64
2023/04/09 12:37:27;;;;;;;7.33;6.63;;;11.50;91.50;;;;;;6276135;28;20450;-63
2023/04/09 12:40:30;;;;;;;7.27;6.57;;;11.50;93.30;;;;;;6275877;28;20442;-63
2023/04/09 12:43:33;;;;;;;6.80;6.20;;;11.40;92.70;;;;;;6262175;28;20474;-63
2023/04/09 12:46:38;;;;;;;6.70;6.07;;;11.30;93.40;;;;;;6250366;28;20471;-63
2023/04/09 12:49:45;;;;;;;6.70;6.20;;;11.40;93.90;;;;;;6256629;28;20458;-62
2023/04/09 12:52:48;;;;;;;8.80;6.40;;;11.50;94.40;;;;;;6275385;28;20954;-62
2023/04/09 12:55:51;;;;;;;6.87;6.27;;;11.80;95.00;;;;;;6275741;28;20470;-63
2023/04/09 12:58:55;;;;;;;7.67;6.97;;;12.00;94.80;;;;;;6274727;28;20477;-64
2023/04/09 13:01:59;;;;;;;6.50;5.90;;;11.90;94.20;;;;;;6274860;28;20474;-64
2023/04/09 13:05:03;;;;;;;6.83;5.80;;;11.60;93.20;;;;;;6274251;28;20545;-63
2023/04/09 13:08:06;;;;;;;5.73;5.30;;;11.40;94.80;;;;;;6275076;28;20477;-62
2023/04/09 13:11:09;;;;;;;5.43;4.97;;;11.10;94.90;;;;;;6274585;28;20469;-63
2023/04/09 13:14:13;;;;;;;5.37;4.80;;;10.80;95.10;;;;;;6274263;28;20484;-62
2023/04/09 13:17:17;;;;;;;5.60;4.63;;;10.50;95.90;;;;;;6274143;28;21142;-62
2023/04/09 13:20:20;;;;;;;4.67;4.27;;;10.10;96.40;;;;;;6282224;28;20460;-62
2023/04/09 13:23:24;;;;;;;5.20;4.80;;;9.80;98.30;;;;;;6274892;28;20957;-63
2023/04/09 13:26:27;;;;;;;4.13;3.83;;;9.60;99.60;;;;;;6276504;28;20489;-64
2023/04/09 13:29:30;;;;;;;5.30;4.80;;;9.60;99.90;;;;;;6265986;28;20474;-64
2023/04/09 13:32:35;;;;;;;5.03;4.60;;;9.70;99.90;;;;;;6254250;28;20588;-63
2023/04/09 13:35:38;;;;;;;5.10;4.67;;;9.80;99.90;;;;;;6287329;28;20500;-64
2023/04/09 13:38:41;;;;;;;5.33;4.90;;;9.90;99.90;;;;;;6302674;28;20979;-63
2023/04/09 13:41:45;;;;;;;6.40;5.27;;;10.10;99.90;;;;;;6304112;28;20461;-64
2023/04/09 13:44:48;;;;;;;5.10;4.63;;;10.20;99.50;;;;;;6279892;28;20766;-64
2023/04/09 13:47:52;;;;;;;4.90;4.40;;;10.30;99.20;;;;;;6279294;28;20470;-63
2023/04/09 13:50:56;;;;;;;10.87;9.87;;;10.50;99.40;;;;;;6278732;28;20536;-63
2023/04/09 13:53:59;;;;;;;4.53;4.23;;;10.70;99.40;;;;;;6279081;28;20470;-63
2023/04/09 13:57:04;;;;;;;3.97;3.67;;;10.70;99.10;;;;;;6278448;28;20801;-63
2023/04/09 14:00:08;;;;;;;3.63;3.33;;;10.90;98.30;;;;;;6278456;28;20470;-63
2023/04/09 14:03:13;;;;;;;4.60;4.20;;;10.70;97.80;;;;;;6278458;28;20477;-63
2023/04/09 14:06:17;;;;;;;4.77;4.40;;;10.70;98.10;;;;;;6278071;28;20493;-63
2023/04/09 14:09:20;;;;;;;6.10;5.50;;;10.60;98.20;;;;;;6278339;28;20476;-63
2023/04/09 14:12:23;;;;;;;5.07;4.67;;;10.30;99.00;;;;;;6278586;28;20481;-63
2023/04/09 14:15:26;;;;;;;5.10;4.70;;;10.50;99.30;;;;;;6278229;28;20831;-63
2023/04/09 14:18:31;;;;;;;4.23;3.90;;;10.60;99.30;;;;;;6278155;28;20961;-63
2023/04/09 14:21:34;;;;;;;5.10;4.60;;;10.60;99.10;;;;;;6280470;28;20474;-63
2023/04/09 14:24:38;;;;;;;5.40;4.90;;;10.50;98.90;;;;;;6296765;28;20476;-63
2023/04/09 14:27:42;;;;;;;5.83;5.30;;;10.20;99.40;;;;;;6303165;28;20542;-63
2023/04/09 14:30:45;;;;;;;5.40;4.90;;;10.00;99.60;;;;;;6302425;28;20480;-63
2023/04/09 14:33:49;;;;;;;5.33;4.93;;;9.80;99.90;;;;;;6299126;28;20465;-63
2023/04/09 14:36:53;;;;;;;5.47;4.97;;;9.50;99.90;;;;;;6278335;28;20470;-62
2023/04/09 14:39:56;;;;;;;5.90;5.30;;;9.20;99.90;;;;;;6277423;28;20478;-62
2023/04/09 14:42:59;;;;;;;5.50;5.00;;;9.00;99.90;;;;;;6269003;28;20463;-61
2023/04/09 14:46:10;;;;;;;5.43;4.70;;;8.90;99.90;;;;;;6252714;28;20974;-62
2023/04/09 14:49:15;;;;;;;6.10;5.50;;;8.90;99.90;;;;;;6253391;28;20806;-61
2023/04/09 14:52:18;;;;;;;5.00;4.50;;;9.00;99.90;;;;;;6277569;28;20806;-61
2023/04/09 14:55:21;;;;;;;4.97;4.63;;;9.20;99.90;;;;;;6277102;28;20473;-62
2023/04/09 14:58:24;;;;;;;5.50;4.83;;;9.30;99.90;;;;;;6277412;28;20442;-62
2023/04/09 15:01:27;;;;;;;57.73;33.03;;;9.60;99.90;;;;;;6277122;28;20465;-62
2023/04/09 15:04:34;;;;;;;21.83;14.90;;;9.70;99.90;;;;;;6276793;28;21008;-62
2023/04/09 15:07:37;;;;;;;22.93;20.70;;;9.70;99.90;;;;;;6277104;28;20921;-62
2023/04/09 15:10:40;;;;;;;7.77;6.80;;;9.80;99.90;;;;;;6276880;28;20775;-62
2023/04/09 15:13:43;;;;;;;10.90;9.80;;;10.10;99.90;;;;;;6276818;28;20767;-62
2023/04/09 15:16:47;;;;;;;9.20;8.40;;;10.10;99.50;;;;;;6277357;28;20465;-61
2023/04/09 15:19:52;;;;;;;12.83;10.93;;;10.10;99.60;;;;;;6277290;28;20482;-61
2023/04/09 15:22:55;;;;;;;8.80;7.37;;;10.10;99.60;;;;;;6277212;28;20492;-62
2023/04/09 15:25:59;;;;;;;6.77;6.10;;;10.10;98.70;;;;;;6276954;28;20477;-62
2023/04/09 15:29:03;;;;;;;5.47;4.97;;;10.00;98.00;;;;;;6276570;28;20801;-61
2023/04/09 15:32:06;;;;;;;6.87;6.13;;;10.00;98.00;;;;;;6278057;28;20485;-62
2023/04/09 15:35:13;;;;;;;6.30;5.70;;;10.00;97.90;;;;;;6277513;28;20474;-61
2023/04/09 15:38:16;;;;;;;8.50;6.77;;;9.90;98.60;;;;;;6277070;28;20480;-61
2023/04/09 15:41:20;;;;;;;5.57;5.10;;;9.80;99.20;;;;;;6278018;28;20474;-61
2023/04/09 15:44:24;;;;;;;6.07;5.57;;;9.90;99.40;;;;;;6276792;28;20478;-62
2023/04/09 15:47:27;;;;;;;6.43;5.53;;;9.90;99.00;;;;;;6276353;28;20474;-62
2023/04/09 15:50:34;;;;;;;7.83;7.13;;;9.80;99.10;;;;;;6276046;28;20469;-61
2023/04/09 15:53:37;;;;;;;6.90;6.33;;;9.80;98.80;;;;;;6276614;28;20478;-62
2023/04/09 15:56:41;;;;;;;8.87;5.17;;;9.90;99.30;;;;;;6276203;28;20791;-62